createdAt,value
2018-09-26T00:02:25.297Z,6.90
2018-09-26T00:04:53.608Z,6.90
2018-09-26T00:07:21.208Z,6.80
2018-09-26T00:09:48.820Z,6.80
2018-09-26T00:12:16.356Z,6.80
2018-09-26T00:14:43.981Z,6.80
2018-09-26T00:17:11.634Z,6.80
2018-09-26T00:19:39.404Z,6.80
2018-09-26T00:22:06.977Z,6.80
2018-09-26T00:24:34.547Z,6.80
2018-09-26T00:27:02.198Z,6.80
2018-09-26T00:29:29.809Z,6.70
2018-09-26T00:31:58.450Z,6.80
2018-09-26T00:34:26.057Z,6.80
2018-09-26T00:36:53.695Z,6.80
2018-09-26T00:39:22.080Z,6.80
2018-09-26T00:41:49.576Z,6.80
2018-09-26T00:44:17.522Z,6.80
2018-09-26T00:46:45.044Z,6.80
2018-09-26T00:49:12.721Z,6.80
2018-09-26T00:51:40.315Z,6.80
2018-09-26T00:54:07.856Z,6.70
2018-09-26T00:56:35.480Z,6.80
2018-09-26T00:59:03.078Z,6.80
2018-09-26T01:01:30.603Z,6.80
2018-09-26T01:03:58.232Z,6.80
2018-09-26T01:06:25.894Z,6.80
2018-09-26T01:08:53.667Z,6.80
2018-09-26T01:11:21.224Z,6.80
2018-09-26T01:16:39.148Z,6.90
2018-09-26T01:19:08.113Z,6.90
2018-09-26T01:21:35.673Z,6.90
2018-09-26T01:24:03.220Z,7.00
2018-09-26T01:26:30.949Z,7.00
2018-09-26T01:28:58.546Z,7.00
2018-09-26T01:31:26.080Z,7.10
2018-09-26T01:33:53.674Z,7.10
2018-09-26T01:36:21.235Z,7.10
2018-09-26T01:38:48.884Z,7.10
2018-09-26T01:41:16.522Z,7.20
2018-09-26T01:43:44.146Z,7.20
2018-09-26T01:46:11.748Z,7.20
2018-09-26T01:48:39.365Z,7.30
2018-09-26T01:51:06.828Z,7.30
2018-09-26T01:53:34.303Z,7.30
2018-09-26T01:56:01.906Z,7.30
2018-09-26T01:58:29.571Z,7.30
2018-09-26T02:00:57.080Z,7.30
2018-09-26T02:03:24.671Z,7.40
2018-09-26T02:05:52.208Z,7.40
2018-09-26T02:08:19.759Z,7.40
2018-09-26T02:10:47.438Z,7.50
2018-09-26T02:13:15.015Z,7.50
2018-09-26T02:15:42.609Z,7.60
2018-09-26T02:18:10.185Z,7.60
2018-09-26T02:25:23.822Z,7.60
2018-09-26T02:27:52.093Z,7.40
2018-09-26T02:30:19.641Z,7.50
2018-09-26T02:32:47.294Z,7.50
2018-09-26T02:35:15.086Z,7.50
2018-09-26T02:37:42.701Z,7.50
2018-09-26T02:40:10.317Z,7.50
2018-09-26T02:42:37.867Z,7.40
2018-09-26T02:45:05.493Z,7.40
2018-09-26T02:47:33.112Z,7.40
2018-09-26T02:50:00.623Z,7.40
2018-09-26T02:52:28.225Z,7.40
2018-09-26T02:54:55.734Z,7.40
2018-09-26T02:57:23.291Z,7.30
2018-09-26T02:59:51.029Z,7.30
2018-09-26T03:02:18.598Z,7.30
2018-09-26T03:04:46.225Z,7.30
2018-09-26T03:07:14.575Z,7.20
2018-09-26T03:09:42.150Z,7.20
2018-09-26T03:12:09.689Z,7.20
2018-09-26T03:14:37.409Z,7.20
2018-09-26T03:17:05.230Z,7.10
2018-09-26T03:19:32.901Z,7.10
2018-09-26T03:22:00.529Z,7.10
2018-09-26T03:24:28.195Z,7.10
2018-09-26T03:26:55.760Z,7.10
2018-09-26T03:29:23.321Z,7.10
2018-09-26T03:31:50.970Z,7.10
2018-09-26T03:34:18.531Z,7.10
2018-09-26T03:36:46.100Z,7.10
2018-09-26T03:39:13.700Z,7.10
2018-09-26T03:41:41.241Z,7.10
2018-09-26T03:44:08.910Z,7.10
2018-09-26T03:46:36.499Z,7.10
2018-09-26T03:49:04.071Z,7.10
2018-09-26T03:51:31.665Z,7.10
2018-09-26T03:53:59.260Z,7.10
2018-09-26T03:56:26.767Z,7.10
2018-09-26T03:58:54.372Z,7.20
2018-09-26T04:01:21.929Z,7.20
2018-09-26T04:03:49.472Z,7.20
2018-09-26T04:06:17.066Z,7.20
2018-09-26T04:08:44.674Z,7.20
2018-09-26T04:11:12.251Z,7.10
2018-09-26T04:13:39.914Z,7.20
2018-09-26T04:16:07.527Z,7.20
2018-09-26T04:18:35.107Z,7.20
2018-09-26T04:21:02.726Z,7.10
2018-09-26T04:23:30.267Z,7.10
2018-09-26T04:25:57.812Z,7.10
2018-09-26T04:28:25.390Z,7.10
2018-09-26T04:30:53.018Z,7.20
2018-09-26T04:33:20.834Z,7.20
2018-09-26T04:35:48.428Z,7.20
2018-09-26T04:38:15.986Z,7.20
2018-09-26T04:40:43.652Z,7.20
2018-09-26T04:43:11.284Z,7.20
2018-09-26T04:45:38.942Z,7.20
2018-09-26T04:48:06.576Z,7.20
2018-09-26T04:50:34.214Z,7.20
2018-09-26T04:53:01.831Z,7.10
2018-09-26T04:55:29.409Z,7.20
2018-09-26T04:57:57.106Z,7.20
2018-09-26T05:00:24.699Z,7.20
2018-09-26T05:02:52.282Z,7.20
2018-09-26T05:05:20.197Z,7.20
2018-09-26T05:07:47.770Z,7.30
2018-09-26T05:10:15.366Z,7.20
2018-09-26T05:12:42.923Z,7.30
2018-09-26T05:15:10.528Z,7.30
2018-09-26T05:17:38.197Z,7.30
2018-09-26T05:20:05.870Z,7.30
2018-09-26T05:22:33.452Z,7.30
2018-09-26T05:25:01.033Z,7.40
2018-09-26T05:27:28.570Z,7.40
2018-09-26T05:29:56.068Z,7.40
2018-09-26T05:32:23.533Z,7.50
2018-09-26T05:34:51.127Z,7.50
2018-09-26T05:40:17.482Z,7.50
2018-09-26T05:42:45.034Z,7.50
2018-09-26T05:45:12.595Z,7.60
2018-09-26T05:47:40.176Z,7.60
2018-09-26T05:50:08.100Z,7.60
2018-09-26T05:52:35.620Z,7.70
2018-09-26T05:55:03.204Z,7.80
2018-09-26T05:57:30.748Z,7.90
2018-09-26T05:59:58.282Z,8.00
2018-09-26T06:02:25.990Z,8.10
2018-09-26T06:04:53.671Z,8.20
2018-09-26T06:07:21.352Z,8.20
2018-09-26T06:09:48.853Z,8.20
2018-09-26T06:12:16.542Z,8.30
2018-09-26T06:14:44.456Z,8.40
2018-09-26T06:17:12.049Z,8.40
2018-09-26T06:19:39.556Z,8.50
2018-09-26T06:22:07.131Z,8.60
2018-09-26T06:24:34.669Z,8.70
2018-09-26T06:27:02.232Z,8.80
2018-09-26T06:29:29.684Z,8.80
2018-09-26T06:31:57.249Z,8.80
2018-09-26T06:34:24.835Z,8.90
2018-09-26T06:36:52.473Z,9.00
2018-09-26T06:39:19.957Z,9.00
2018-09-26T06:41:47.528Z,9.00
2018-09-26T06:44:15.008Z,9.10
2018-09-26T06:46:42.537Z,9.30
2018-09-26T06:49:10.866Z,9.30
2018-09-26T06:51:38.372Z,9.40
2018-09-26T06:54:06.055Z,9.50
2018-09-26T06:56:33.629Z,9.60
2018-09-26T06:59:01.123Z,9.70
2018-09-26T07:01:28.666Z,9.80
2018-09-26T07:03:56.208Z,9.90
2018-09-26T07:06:23.729Z,10.00
2018-09-26T07:08:51.283Z,10.10
2018-09-26T07:11:18.803Z,10.20
2018-09-26T07:13:47.633Z,10.30
2018-09-26T07:16:15.827Z,10.40
2018-09-26T07:18:43.355Z,10.60
2018-09-26T07:21:10.906Z,10.70
2018-09-26T07:23:38.350Z,10.70
2018-09-26T07:26:06.064Z,10.90
2018-09-26T07:28:33.673Z,10.80
2018-09-26T07:31:01.318Z,11.00
2018-09-26T07:33:28.855Z,11.00
2018-09-26T07:35:56.417Z,11.20
2018-09-26T07:38:24.064Z,11.20
2018-09-26T07:40:51.631Z,11.20
2018-09-26T07:43:19.144Z,11.30
2018-09-26T07:45:46.784Z,11.40
2018-09-26T07:48:14.344Z,11.50
2018-09-26T07:50:41.865Z,11.50
2018-09-26T07:53:09.402Z,11.50
2018-09-26T07:55:36.917Z,11.50
2018-09-26T07:58:04.497Z,11.60
2018-09-26T08:00:31.985Z,11.70
2018-09-26T08:02:59.519Z,11.80
2018-09-26T08:05:26.963Z,11.90
2018-09-26T08:07:54.546Z,12.00
2018-09-26T08:10:22.093Z,11.90
2018-09-26T08:12:50.787Z,12.00
2018-09-26T08:15:18.443Z,12.00
2018-09-26T08:17:45.968Z,12.00
2018-09-26T08:20:13.578Z,12.00
2018-09-26T08:22:41.099Z,12.10
2018-09-26T08:25:08.623Z,12.10
2018-09-26T08:27:36.137Z,12.30
2018-09-26T08:30:04.195Z,12.30
2018-09-26T08:32:31.693Z,12.30
2018-09-26T08:34:59.306Z,12.30
2018-09-26T08:37:27.208Z,12.40
2018-09-26T08:39:54.720Z,12.50
2018-09-26T08:42:22.176Z,12.60
2018-09-26T08:44:49.662Z,12.70
2018-09-26T08:47:17.152Z,12.80
2018-09-26T08:49:44.678Z,12.80
2018-09-26T08:52:12.143Z,13.00
2018-09-26T08:54:39.660Z,13.10
2018-09-26T08:57:07.281Z,13.20
2018-09-26T08:59:34.894Z,13.30
2018-09-26T09:02:02.424Z,13.40
2018-09-26T09:04:29.982Z,13.40
2018-09-26T09:06:58.516Z,13.60
2018-09-26T09:09:26.040Z,13.60
2018-09-26T09:11:53.571Z,13.70
2018-09-26T09:14:21.130Z,13.70
2018-09-26T09:16:48.712Z,13.90
2018-09-26T09:19:16.215Z,14.00
2018-09-26T09:21:43.692Z,14.00
2018-09-26T09:24:11.289Z,14.10
2018-09-26T09:26:38.772Z,14.10
2018-09-26T09:29:06.321Z,14.20
2018-09-26T09:31:33.860Z,14.20
2018-09-26T09:34:01.315Z,14.30
2018-09-26T09:36:28.865Z,14.20
2018-09-26T09:38:56.453Z,14.30
2018-09-26T09:41:23.978Z,14.50
2018-09-26T09:43:51.563Z,14.70
2018-09-26T09:46:21.265Z,14.80
2018-09-26T09:48:48.946Z,14.90
2018-09-26T09:51:16.440Z,15.00
2018-09-26T09:53:44.050Z,15.10
2018-09-26T09:56:12.634Z,15.10
2018-09-26T09:58:40.199Z,15.10
2018-09-26T10:01:13.610Z,15.10
2018-09-26T10:03:41.198Z,15.00
2018-09-26T10:06:08.832Z,15.10
2018-09-26T10:08:36.461Z,15.20
2018-09-26T10:11:03.967Z,15.20
2018-09-26T10:13:31.510Z,15.40
2018-09-26T10:15:59.124Z,15.40
2018-09-26T10:18:26.783Z,15.40
2018-09-26T10:20:54.397Z,15.30
2018-09-26T10:23:21.970Z,15.30
2018-09-26T10:25:49.488Z,15.40
2018-09-26T10:28:17.080Z,15.40
2018-09-26T10:30:44.619Z,15.40
2018-09-26T10:33:12.168Z,15.40
2018-09-26T10:35:39.798Z,15.50
2018-09-26T10:38:07.454Z,15.60
2018-09-26T10:40:35.059Z,15.70
2018-09-26T10:43:02.844Z,15.80
2018-09-26T10:45:30.391Z,16.00
2018-09-26T10:47:57.870Z,16.20
2018-09-26T10:50:25.535Z,16.30
2018-09-26T10:52:53.811Z,16.20
2018-09-26T10:55:21.367Z,16.20
2018-09-26T10:57:48.900Z,16.20
2018-09-26T11:00:16.613Z,16.30
2018-09-26T11:02:44.183Z,16.40
2018-09-26T11:05:11.729Z,16.50
2018-09-26T11:07:39.418Z,16.40
2018-09-26T11:10:07.156Z,16.40
2018-09-26T11:12:34.946Z,16.50
2018-09-26T11:15:02.495Z,16.60
2018-09-26T11:17:30.046Z,16.60
2018-09-26T11:19:57.613Z,16.80
2018-09-26T11:22:25.225Z,16.90
2018-09-26T11:24:52.743Z,16.80
2018-09-26T11:27:20.222Z,16.80
2018-09-26T11:29:48.923Z,16.70
2018-09-26T11:32:16.521Z,16.60
2018-09-26T11:34:44.037Z,16.70
2018-09-26T11:37:11.603Z,16.70
2018-09-26T11:39:39.201Z,16.70
2018-09-26T11:42:06.761Z,16.80
2018-09-26T11:44:34.300Z,17.00
2018-09-26T11:47:01.793Z,17.10
2018-09-26T11:49:29.322Z,17.30
2018-09-26T11:51:56.839Z,17.50
2018-09-26T11:54:24.360Z,17.50
2018-09-26T11:56:51.829Z,17.50
2018-09-26T11:59:19.366Z,17.50
2018-09-26T12:02:18.169Z,17.60
2018-09-26T12:04:45.636Z,17.60
2018-09-26T12:07:13.249Z,17.60
2018-09-26T12:09:40.734Z,17.50
2018-09-26T12:12:08.346Z,17.50
2018-09-26T12:14:35.972Z,17.60
2018-09-26T12:17:03.561Z,17.70
2018-09-26T12:19:31.094Z,17.80
2018-09-26T12:21:58.802Z,18.10
2018-09-26T12:24:26.384Z,18.60
2018-09-26T12:26:54.113Z,19.60
2018-09-26T12:29:21.698Z,20.40
2018-09-26T12:31:49.257Z,20.80
2018-09-26T12:34:16.998Z,21.50
2018-09-26T12:36:44.504Z,22.20
2018-09-26T12:39:12.046Z,23.10
2018-09-26T12:41:39.763Z,23.50
2018-09-26T12:44:07.407Z,23.50
2018-09-26T12:46:35.562Z,23.20
2018-09-26T12:49:03.130Z,22.70
2018-09-26T12:51:30.700Z,21.90
2018-09-26T12:53:58.376Z,21.60
2018-09-26T12:56:25.942Z,21.60
2018-09-26T12:58:53.470Z,21.40
2018-09-26T13:01:21.043Z,21.90
2018-09-26T13:03:48.538Z,22.00
2018-09-26T13:06:16.057Z,21.90
2018-09-26T13:08:43.537Z,22.10
2018-09-26T13:11:11.023Z,21.70
2018-09-26T13:13:38.516Z,21.90
2018-09-26T13:16:06.144Z,21.60
2018-09-26T13:18:33.675Z,21.20
2018-09-26T13:21:01.260Z,21.10
2018-09-26T13:23:28.777Z,21.00
2018-09-26T13:25:56.630Z,20.70
2018-09-26T13:28:24.197Z,20.80
2018-09-26T13:30:51.665Z,20.80
2018-09-26T13:33:19.158Z,20.60
2018-09-26T13:35:46.628Z,20.30
2018-09-26T13:38:14.285Z,20.30
2018-09-26T13:40:41.858Z,20.90
2018-09-26T13:43:09.395Z,21.60
2018-09-26T13:45:36.936Z,21.30
2018-09-26T13:48:04.530Z,20.80
2018-09-26T13:50:32.172Z,20.90
2018-09-26T13:52:59.697Z,21.00
2018-09-26T13:55:27.200Z,21.50
2018-09-26T13:57:54.721Z,21.90
2018-09-26T14:00:22.377Z,22.30
2018-09-26T14:02:49.894Z,22.60
2018-09-26T14:05:17.471Z,23.10
2018-09-26T14:07:45.215Z,22.90
2018-09-26T14:10:12.776Z,22.60
2018-09-26T14:12:40.339Z,22.50
2018-09-26T14:15:07.942Z,22.50
2018-09-26T14:17:35.559Z,22.70
2018-09-26T14:20:03.132Z,22.60
2018-09-26T14:22:31.585Z,22.40
2018-09-26T14:24:59.201Z,22.00
2018-09-26T14:27:26.808Z,22.10
2018-09-26T14:29:54.332Z,22.10
2018-09-26T14:32:21.836Z,22.10
2018-09-26T14:34:49.452Z,22.00
2018-09-26T14:37:17.211Z,22.10
2018-09-26T14:39:44.951Z,22.20
2018-09-26T14:42:12.536Z,23.10
2018-09-26T14:44:40.069Z,23.80
2018-09-26T14:47:07.673Z,24.30
2018-09-26T14:49:35.312Z,24.20
2018-09-26T14:52:03.522Z,24.30
2018-09-26T14:54:31.180Z,24.10
2018-09-26T14:56:58.745Z,24.20
2018-09-26T14:59:26.399Z,24.50
2018-09-26T15:01:53.936Z,24.60
2018-09-26T15:04:21.614Z,24.40
2018-09-26T15:06:49.096Z,23.80
2018-09-26T15:09:16.925Z,24.20
2018-09-26T15:11:44.633Z,24.60
2018-09-26T15:14:12.324Z,25.00
2018-09-26T15:16:39.864Z,24.80
2018-09-26T15:19:07.512Z,25.30
2018-09-26T15:21:35.168Z,25.80
2018-09-26T15:24:02.691Z,25.50
2018-09-26T15:26:30.235Z,24.70
2018-09-26T15:28:57.942Z,24.20
2018-09-26T15:31:25.549Z,23.50
2018-09-26T15:33:53.273Z,23.00
2018-09-26T15:36:20.950Z,22.50
2018-09-26T15:38:48.636Z,22.00
2018-09-26T15:41:16.243Z,21.40
2018-09-26T15:43:43.837Z,21.10
2018-09-26T15:46:12.539Z,20.70
2018-09-26T15:48:40.173Z,20.60
2018-09-26T15:51:08.806Z,20.40
2018-09-26T15:53:36.446Z,20.20
2018-09-26T15:56:04.102Z,20.00
2018-09-26T15:58:31.646Z,19.90
2018-09-26T16:00:59.177Z,19.70
2018-09-26T16:03:27.145Z,19.40
2018-09-26T16:05:54.814Z,19.40
2018-09-26T16:08:22.930Z,19.30
2018-09-26T16:10:50.599Z,19.10
2018-09-26T16:13:18.139Z,18.90
2018-09-26T16:15:45.732Z,18.70
2018-09-26T16:18:13.387Z,18.60
2018-09-26T16:20:40.890Z,18.50
2018-09-26T16:23:08.583Z,18.50
2018-09-26T16:25:36.183Z,18.40
2018-09-26T16:28:03.805Z,18.30
2018-09-26T16:30:31.432Z,18.20
2018-09-26T16:32:59.207Z,18.20
2018-09-26T16:35:26.719Z,18.20
2018-09-26T16:37:54.412Z,18.10
2018-09-26T16:40:22.061Z,18.10
2018-09-26T16:42:49.627Z,18.00
2018-09-26T16:45:17.439Z,17.90
2018-09-26T16:47:44.930Z,17.90
2018-09-26T16:50:24.752Z,17.80
2018-09-26T16:52:52.213Z,17.70
2018-09-26T16:55:19.741Z,17.70
2018-09-26T16:57:47.488Z,17.60
2018-09-26T17:00:15.104Z,17.40
2018-09-26T17:02:42.710Z,17.40
2018-09-26T17:05:10.241Z,17.40
2018-09-26T17:07:37.949Z,17.40
2018-09-26T17:10:05.707Z,17.30
2018-09-26T17:12:33.280Z,17.20
2018-09-26T17:15:00.829Z,17.10
2018-09-26T17:17:28.418Z,17.00
2018-09-26T17:19:56.224Z,17.00
2018-09-26T17:22:23.983Z,16.90
2018-09-26T17:24:52.271Z,16.90
2018-09-26T17:27:19.977Z,16.80
2018-09-26T17:29:47.513Z,16.80
2018-09-26T17:32:16.825Z,16.70
2018-09-26T17:34:44.522Z,16.70
2018-09-26T17:37:13.096Z,16.70
2018-09-26T17:39:41.237Z,16.60
2018-09-26T17:42:09.170Z,16.60
2018-09-26T17:44:36.940Z,16.60
2018-09-26T17:47:04.587Z,16.60
2018-09-26T17:49:32.840Z,16.60
2018-09-26T17:52:01.220Z,16.70
2018-09-26T17:54:29.001Z,16.70
2018-09-26T17:56:56.841Z,16.70
2018-09-26T17:59:25.076Z,16.70
2018-09-26T18:01:52.756Z,16.70
2018-09-26T18:04:23.941Z,16.70
2018-09-26T18:06:51.845Z,16.70
2018-09-26T18:09:19.507Z,16.70
2018-09-26T18:11:47.121Z,16.70
2018-09-26T18:14:15.148Z,16.70
2018-09-26T18:16:42.898Z,16.70
2018-09-26T18:19:10.484Z,16.70
2018-09-26T18:21:39.107Z,16.70
2018-09-26T18:24:06.779Z,16.70
2018-09-26T18:26:34.321Z,16.70
2018-09-26T18:32:32.924Z,16.70
2018-09-26T18:35:00.488Z,16.70
2018-09-26T18:37:28.801Z,16.70
2018-09-26T18:39:56.504Z,16.60
2018-09-26T18:42:24.134Z,16.70
2018-09-26T18:44:51.733Z,16.70
2018-09-26T18:47:19.300Z,16.70
2018-09-26T18:49:47.017Z,16.60
2018-09-26T18:52:14.766Z,16.70
2018-09-26T18:54:42.412Z,16.70
2018-09-26T18:57:10.188Z,16.60
2018-09-26T18:59:37.732Z,16.60
2018-09-26T19:02:05.313Z,16.60
2018-09-26T19:04:33.013Z,16.60
2018-09-26T19:07:00.590Z,16.70
2018-09-26T19:09:28.244Z,16.70
2018-09-26T19:11:55.873Z,16.60
2018-09-26T19:14:23.567Z,16.60
2018-09-26T19:16:51.152Z,16.60
2018-09-26T19:19:18.722Z,16.60
2018-09-26T19:21:46.298Z,16.50
2018-09-26T19:24:13.797Z,16.50
2018-09-26T19:26:41.434Z,16.50
2018-09-26T19:29:09.030Z,16.50
2018-09-26T19:31:36.661Z,16.50
2018-09-26T19:34:04.985Z,16.60
2018-09-26T19:36:32.550Z,16.60
2018-09-26T19:39:00.142Z,16.50
2018-09-26T19:41:27.690Z,16.60
2018-09-26T19:43:55.255Z,16.50
2018-09-26T19:46:22.945Z,16.60
2018-09-26T19:48:50.437Z,16.60
2018-09-26T19:51:19.144Z,16.60
2018-09-26T19:53:46.773Z,16.60
2018-09-26T19:56:14.445Z,16.60
2018-09-26T19:58:42.117Z,16.60
2018-09-26T20:01:09.702Z,16.60
2018-09-26T20:03:37.903Z,16.50
2018-09-26T20:06:05.708Z,16.50
2018-09-26T20:08:33.365Z,16.60
2018-09-26T20:11:01.081Z,16.60
2018-09-26T20:13:28.616Z,16.60
2018-09-26T20:15:56.434Z,16.60
2018-09-26T20:18:24.027Z,16.60
2018-09-26T20:20:51.621Z,16.60
2018-09-26T20:23:19.228Z,16.60
2018-09-26T20:25:46.878Z,16.60
2018-09-26T20:28:14.732Z,16.70
2018-09-26T20:30:43.353Z,16.70
2018-09-26T20:33:11.138Z,16.70
2018-09-26T20:35:38.842Z,16.70
2018-09-26T20:38:06.526Z,16.60
2018-09-26T20:40:34.244Z,16.60
2018-09-26T20:43:01.757Z,16.60
2018-09-26T20:45:29.436Z,16.50
2018-09-26T20:47:57.369Z,16.60
2018-09-26T20:50:24.924Z,16.60
2018-09-26T20:52:52.794Z,16.60
2018-09-26T20:55:21.354Z,16.50
2018-09-26T20:57:48.968Z,16.50
2018-09-26T21:00:16.540Z,16.50
2018-09-26T21:02:44.081Z,16.40
2018-09-26T21:05:12.016Z,16.40
2018-09-26T21:07:39.695Z,16.40
2018-09-26T21:10:07.702Z,16.40
2018-09-26T21:12:35.407Z,16.40
2018-09-26T21:15:02.954Z,16.40
2018-09-26T21:17:30.609Z,16.30
2018-09-26T21:19:58.784Z,16.30
2018-09-26T21:22:26.268Z,16.30
2018-09-26T21:24:53.892Z,16.30
2018-09-26T21:27:21.361Z,16.30
2018-09-26T21:29:48.879Z,16.30
2018-09-26T21:32:16.442Z,16.30
2018-09-26T21:34:43.960Z,16.20
2018-09-26T21:37:12.133Z,16.20
2018-09-26T21:39:39.764Z,16.30
2018-09-26T21:42:07.442Z,16.30
2018-09-26T21:44:35.031Z,16.30
2018-09-26T21:47:02.790Z,16.30
2018-09-26T21:49:30.402Z,16.40
2018-09-26T21:51:57.947Z,16.30
2018-09-26T21:54:25.782Z,16.30
2018-09-26T21:56:53.509Z,16.30
2018-09-26T21:59:21.760Z,16.30
2018-09-26T22:01:49.303Z,16.30
2018-09-26T22:04:16.868Z,16.30
2018-09-26T22:06:44.398Z,16.30
2018-09-26T22:09:12.046Z,16.30
2018-09-26T22:11:39.568Z,16.30
2018-09-26T22:14:07.088Z,16.30
2018-09-26T22:16:34.614Z,16.30
2018-09-26T22:19:02.183Z,16.20
2018-09-26T22:21:29.659Z,16.30
2018-09-26T22:23:57.198Z,16.20
2018-09-26T22:26:25.436Z,16.20
2018-09-26T22:28:52.948Z,16.20
2018-09-26T22:31:22.414Z,16.20
2018-09-26T22:33:49.997Z,16.20
2018-09-26T22:36:17.637Z,16.30
2018-09-26T22:38:45.116Z,16.30
2018-09-26T22:41:12.725Z,16.30
2018-09-26T22:43:40.300Z,16.20
2018-09-26T22:46:07.827Z,16.30
2018-09-26T22:48:35.400Z,16.20
2018-09-26T22:51:02.927Z,16.20
2018-09-26T22:53:30.500Z,16.20
2018-09-26T22:55:58.031Z,16.20
2018-09-26T22:58:25.672Z,16.20
2018-09-26T23:00:53.391Z,16.20
2018-09-26T23:03:21.026Z,16.20
2018-09-26T23:05:48.826Z,16.20
2018-09-26T23:08:16.431Z,16.20
2018-09-26T23:10:44.078Z,16.20
2018-09-26T23:13:11.875Z,16.20
2018-09-26T23:15:39.543Z,16.20
2018-09-26T23:18:07.609Z,16.20
2018-09-26T23:20:35.293Z,16.20
2018-09-26T23:23:02.869Z,16.20
2018-09-26T23:25:33.038Z,16.20
2018-09-26T23:28:02.091Z,16.20
2018-09-26T23:30:29.717Z,16.20
2018-09-26T23:32:57.420Z,16.20
2018-09-26T23:35:25.271Z,16.20
2018-09-26T23:37:53.378Z,16.20
2018-09-26T23:40:21.071Z,16.20
2018-09-26T23:42:48.684Z,16.20
2018-09-26T23:45:16.298Z,16.20
2018-09-26T23:47:44.038Z,16.30
2018-09-26T23:50:11.699Z,16.30
2018-09-26T23:52:40.785Z,16.20
2018-09-26T23:55:08.498Z,16.20
2018-09-26T23:57:36.184Z,16.20
